Welcome!

Visit our other weather sites:

Template documentation
and downloads

And another site



There are no active watches, warnings or advisories

Nearby METAR Reports

   
KAVP - Albrightsville, PA
Updated: Dec 11 2018 1:54 am
Clear  
Clear  
   Wind: ESE 5.8 mph
Wind: ESE 5.8 mph
Temperature: 19.4°F
Wind Chill: 10.4°F
Dew Point: 15.8°F
Humidity: 86%
Barometer: 30.14 inHg
Clouds: Clear
Visibility: 8 mi
Cloud details: Clear
KAVP 110754Z 11005KT 8SM CLR M07/M09 A3014 RMK AO2 SLP215 T10721094
KIWA - Apache Junction, AZ
Updated: Dec 11 2018 2:15 am
Clear  
Clear  
   Wind: ESE 5.8 mph
Wind: ESE 5.8 mph
Temperature: 53.6°F
Dew Point: 32°F
Humidity: 44%
Barometer: 30.06 inHg
Clouds: Clear
Visibility: 10 mi
Cloud details: Clear
KIWA 110815Z AUTO 11005KT 10SM CLR 12/00 A3006 RMK AO2 T01180004
KPKB - Blue Rock, OH
Updated: Dec 11 2018 1:53 am
Mist, Clear  
Mist, Clear  
   Wind: Calm
Wind: Calm
Temperature: 15.8°F
Dew Point: 12.2°F
Humidity: 86%
Barometer: 30.23 inHg
Clouds: Clear
Visibility: 5 mi
Cloud details: Clear
KPKB 110753Z AUTO 00000KT 5SM BR CLR M09/M11 A3023 RMK AO2 SLP248 I1000 T10891111 $
KHVN - Branford, CT
Updated: Dec 11 2018 12:53 am
NOT Current
Clear  
Clear  
   Wind: North 4.6 mph
Wind: North 4.6 mph
Temperature: 21.2°F
Wind Chill: 15.8°F
Dew Point: 15.8°F
Humidity: 80%
Barometer: 30.19 inHg
Clouds: Clear
Visibility: 10 mi
Cloud details: Clear
KHVN 110653Z AUTO 36004KT 10SM CLR M06/M09 A3019 RMK AO2 SLP223 T10611094
KPHX - Carefree, AZ
Updated: Dec 11 2018 1:51 am
Mostly Cloudy  
Mostly Cloudy  
   Wind: East 3.5 mph
Wind: East 3.5 mph
Temperature: 60.8°F
Dew Point: 33.8°F
Humidity: 36%
Barometer: 30.03 inHg
Clouds: Mostly Cloudy
Visibility: 10 mi
Cloud details: Mostly Cloudy 6401 m,
Mostly Cloudy 7010 m
KPHX 110751Z 08003KT 10SM BKN210 BKN230 16/01 A3003 RMK AO2 SLP160 T01560011
 

Script developed by  Saratoga-weather.org Adapted for the template by  Weerstation Leuven